Time;durP1;ratioP1;P1;durP2;ratioP2;P2;SDS_P1;SDS_P2;PMS_P1;PMS_P2;Temp;Humidity;BMP_temperature;BMP_pressure;BME280_temperature;BME280_humidity;BME280_pressure;Samples;Min_cycle;Max_cycle;Signal;HPM_P1;HPM_P2
2022/11/16 00:01:17;;;;;;;18.65;11.55;;;;;;;3.92;77.67;96206.97;5113322;28;20374;-61
2022/11/16 00:03:44;;;;;;;24.98;11.50;;;;;;;3.85;77.59;96207.13;5113220;28;20108;-62
2022/11/16 00:06:13;;;;;;;27.58;12.38;;;;;;;3.85;77.82;96207.13;5113233;28;20397;-61
2022/11/16 00:08:43;;;;;;;21.33;11.65;;;;;;;3.82;77.64;96214.94;5113179;28;20083;-61
2022/11/16 00:11:12;;;;;;;24.45;12.68;;;;;;;3.81;77.64;96211.47;5113157;28;20054;-61
2022/11/16 00:13:40;;;;;;;22.75;12.00;;;;;;;3.79;77.59;96200.28;5113087;28;20086;-61
2022/11/16 00:16:08;;;;;;;22.60;11.68;;;;;;;3.67;77.99;96198.75;5113000;28;20093;-61
2022/11/16 00:18:37;;;;;;;23.85;11.77;;;;;;;3.55;78.52;96194.63;5113027;28;20134;-61
2022/11/16 00:21:05;;;;;;;20.92;12.18;;;;;;;3.53;79.00;96189.47;5113066;28;20040;-61
2022/11/16 00:23:33;;;;;;;25.67;12.60;;;;;;;3.56;78.98;96188.59;5113103;28;20161;-61
2022/11/16 00:26:04;;;;;;;27.88;13.40;;;;;;;3.59;78.82;96185.09;5112996;28;20039;-61
2022/11/16 00:28:31;;;;;;;20.33;11.80;;;;;;;3.60;78.90;96190.25;5113089;28;20112;-61
2022/11/16 00:30:59;;;;;;;23.83;12.68;;;;;;;3.54;78.55;96188.63;5113003;28;20047;-61
2022/11/16 00:33:27;;;;;;;21.38;11.77;;;;;;;3.53;78.81;96186.06;5113031;28;20044;-61
2022/11/16 00:35:56;;;;;;;21.73;11.88;;;;;;;3.56;79.02;96190.31;5113241;28;20083;-61
2022/11/16 00:38:24;;;;;;;27.55;12.88;;;;;;;3.61;78.95;96188.53;5116651;28;20052;-61
2022/11/16 00:40:51;;;;;;;22.80;12.43;;;;;;;3.58;78.63;96181.66;5116437;28;20073;-61
2022/11/16 00:43:18;;;;;;;24.35;12.98;;;;;;;3.46;79.45;96177.53;5116659;28;20048;-61
2022/11/16 00:45:45;;;;;;;20.08;11.48;;;;;;;3.41;80.02;96171.59;5116520;28;20043;-61
2022/11/16 00:48:12;;;;;;;21.30;12.80;;;;;;;3.42;80.45;96175.88;5116508;28;20447;-61
2022/11/16 00:50:40;;;;;;;24.13;13.15;;;;;;;3.42;80.88;96162.94;5116513;28;20052;-61
2022/11/16 00:53:12;;;;;;;24.17;12.50;;;;;;;3.45;80.96;96164.63;5116205;28;20122;-61
2022/11/16 00:55:40;;;;;;;24.77;13.00;;;;;;;3.44;81.12;96155.16;5116232;28;20087;-61
2022/11/16 00:58:07;;;;;;;26.08;13.02;;;;;;;3.43;80.87;96149.13;5116222;28;20073;-61
2022/11/16 01:00:34;;;;;;;23.23;13.68;;;;;;;3.45;80.99;96149.09;5116122;28;20086;-61
2022/11/16 01:03:01;;;;;;;23.13;13.70;;;;;;;3.38;80.90;96145.78;5116080;28;20059;-61
2022/11/16 01:05:29;;;;;;;24.45;12.75;;;;;;;3.41;81.20;96143.97;5116086;28;20058;-61
2022/11/16 01:07:56;;;;;;;25.60;13.50;;;;;;;3.40;81.24;96154.34;5116183;28;20055;-61
2022/11/16 01:10:26;;;;;;;24.58;12.75;;;;;;;3.40;81.41;96149.16;5116185;28;20125;-61
2022/11/16 01:12:53;;;;;;;23.58;13.40;;;;;;;3.45;80.86;96142.19;5115903;28;20135;-61
2022/11/16 01:15:22;;;;;;;24.33;13.07;;;;;;;3.52;80.84;96145.53;5115890;28;20062;-61
2022/11/16 01:17:50;;;;;;;22.13;12.65;;;;;;;3.48;80.71;96143.88;5115890;28;20075;-61
2022/11/16 01:20:19;;;;;;;25.38;13.38;;;;;;;3.41;81.06;96137.97;5116005;28;20075;-61
2022/11/16 01:22:47;;;;;;;28.52;14.05;;;;;;;3.28;81.23;96130.38;5115822;28;20492;-61
2022/11/16 01:25:16;;;;;;;29.40;13.88;;;;;;;3.24;81.74;96135.63;5115837;28;20043;-61
2022/11/16 01:27:44;;;;;;;25.05;13.15;;;;;;;3.19;81.75;96129.69;5115751;28;20055;-61
2022/11/16 01:30:14;;;;;;;23.55;12.98;;;;;;;3.15;81.89;96126.28;5115658;28;20500;-61
2022/11/16 01:32:41;;;;;;;24.48;12.30;;;;;;;3.19;82.04;96127.09;5115527;28;20489;-61
2022/11/16 01:35:08;;;;;;;23.42;12.68;;;;;;;3.18;81.94;96125.38;5115543;28;20047;-61
2022/11/16 01:37:35;;;;;;;26.85;13.60;;;;;;;3.12;82.27;96121.16;5115554;28;20051;-61
2022/11/16 01:40:03;;;;;;;23.63;13.00;;;;;;;3.13;82.33;96125.47;5115222;28;20054;-61
2022/11/16 01:42:32;;;;;;;26.88;13.07;;;;;;;3.11;82.26;96115.16;5115418;28;20134;-61
2022/11/16 01:45:08;;;;;;;21.20;13.00;;;;;;;3.15;81.99;96106.47;5115411;28;20043;-61
2022/11/16 01:47:35;;;;;;;26.38;13.90;;;;;;;3.20;81.80;96108.97;5115374;28;20147;-62
2022/11/16 01:50:08;;;;;;;24.02;13.00;;;;;;;3.26;81.75;96108.03;5115324;28;20046;-61
2022/11/16 01:52:39;;;;;;;26.98;13.05;;;;;;;3.27;81.25;96107.13;5115126;28;20044;-61
2022/11/16 01:55:07;;;;;;;24.98;12.70;;;;;;;3.31;80.61;96103.63;5115122;28;20044;-61
2022/11/16 01:57:38;;;;;;;22.73;12.80;;;;;;;3.25;80.34;96094.22;5115087;28;20048;-61
2022/11/16 02:00:09;;;;;;;26.55;14.48;;;;;;;3.25;80.30;96096.81;5115166;28;20054;-62
2022/11/16 02:02:36;;;;;;;30.35;13.40;;;;;;;3.18;80.52;96102.09;5115023;28;20138;-61
2022/11/16 02:05:04;;;;;;;23.40;12.57;;;;;;;3.11;80.33;96089.31;5114899;28;20044;-62
2022/11/16 02:10:45;;;;;;;28.20;13.18;;;;;;;3.12;80.23;96080.66;5114693;28;20071;-61
2022/11/16 02:13:28;;;;;;;30.30;15.00;;;;;;;3.15;80.77;96084.91;5114676;28;20583;-61
2022/11/16 02:16:05;;;;;;;26.77;14.20;;;;;;;3.11;80.69;96078.09;5114765;28;20079;-61
2022/11/16 02:18:38;;;;;;;26.05;12.55;;;;;;;3.12;80.88;96080.66;5114855;28;20126;-61
2022/11/16 02:21:23;;;;;;;26.80;13.48;;;;;;;3.09;81.15;96080.72;5114746;28;20101;-61
2022/11/16 02:24:31;;;;;;;25.17;13.38;;;;;;;3.10;81.15;96069.47;5114636;28;20541;-61
2022/11/16 02:27:43;;;;;;;30.50;15.00;;;;;;;3.06;81.90;96070.41;5114631;28;20130;-61
2022/11/16 02:30:12;;;;;;;27.42;13.73;;;;;;;3.10;82.89;96069.47;5114603;28;20047;-61
2022/11/16 02:32:44;;;;;;;31.65;14.68;;;;;;;3.05;83.15;96076.47;5114284;28;20144;-61
2022/11/16 02:35:17;;;;;;;29.70;14.57;;;;;;;2.98;83.08;96085.19;5114535;28;20405;-61
2022/11/16 02:37:48;;;;;;;27.85;13.77;;;;;;;3.02;83.20;96092.03;5114382;28;20051;-61
2022/11/16 02:40:17;;;;;;;26.80;12.68;;;;;;;3.01;82.24;96080.81;5114000;28;20098;-61
2022/11/16 02:42:50;;;;;;;29.95;13.32;;;;;;;3.01;81.41;96077.41;5114229;28;20048;-61
2022/11/16 02:45:22;;;;;;;28.33;14.40;;;;;;;2.86;81.77;96076.72;5114254;28;20048;-61
2022/11/16 02:47:52;;;;;;;28.73;14.15;;;;;;;2.85;83.32;96079.34;5114089;28;20051;-61
2022/11/16 02:50:22;;;;;;;29.43;15.40;;;;;;;2.70;82.47;96065.78;5114127;28;20054;-61
2022/11/16 02:52:49;;;;;;;31.30;14.60;;;;;;;2.74;82.28;96067.44;5114119;28;20287;-61
2022/11/16 02:55:16;;;;;;;23.30;13.50;;;;;;;2.62;82.76;96068.47;5114115;28;20051;-61
2022/11/16 02:57:49;;;;;;;28.75;14.73;;;;;;;2.53;82.76;96066.88;5114112;28;20071;-61
2022/11/16 03:00:23;;;;;;;30.70;13.90;;;;;;;2.58;82.82;96073.69;5113528;28;20040;-61
2022/11/16 03:02:59;;;;;;;29.40;13.77;;;;;;;2.59;82.70;96073.66;5114006;28;20096;-61
2022/11/16 03:05:32;;;;;;;28.48;14.20;;;;;;;2.52;83.17;96074.63;5113930;28;20054;-61
2022/11/16 03:08:08;;;;;;;29.95;13.88;;;;;;;2.51;83.57;96076.38;5113892;28;20551;-61
2022/11/16 03:13:24;;;;;;;28.00;15.45;;;;;;;2.46;83.58;96062.66;5113731;28;20061;-61
2022/11/16 03:15:55;;;;;;;36.75;14.38;;;;;;;2.51;84.10;96054.84;5113870;28;20047;-61
2022/11/16 03:18:27;;;;;;;30.83;14.40;;;;;;;2.51;83.71;96057.44;5113707;28;20092;-62
2022/11/16 03:21:06;;;;;;;24.42;13.73;;;;;;;2.53;83.56;96051.38;5113762;28;20044;-61
2022/11/16 03:23:33;;;;;;;29.38;14.90;;;;;;;2.58;83.31;96045.28;5113653;28;20040;-61
2022/11/16 03:26:05;;;;;;;24.98;13.23;;;;;;;2.58;83.51;96042.69;5113797;28;20122;-61
2022/11/16 03:28:36;;;;;;;27.63;14.68;;;;;;;2.47;84.18;96043.69;5113537;28;20488;-61
2022/11/16 03:31:11;;;;;;;29.17;15.02;;;;;;;2.51;84.58;96050.56;5113412;28;20052;-61
2022/11/16 03:33:44;;;;;;;27.20;13.68;;;;;;;2.55;84.29;96040.16;5113536;28;20489;-61
2022/11/16 03:36:16;;;;;;;31.30;13.55;;;;;;;2.56;83.93;96031.56;5113641;28;20067;-62
2022/11/16 03:38:45;;;;;;;34.15;15.65;;;;;;;2.59;83.42;96023.78;5113175;28;20387;-62
2022/11/16 03:41:15;;;;;;;31.75;13.18;;;;;;;2.59;83.13;96021.19;5113393;28;20043;-61
2022/11/16 03:43:43;;;;;;;23.98;13.40;;;;;;;2.55;82.81;96016.91;5113444;28;20048;-61
2022/11/16 03:46:13;;;;;;;26.88;13.15;;;;;;;2.51;83.01;96018.69;5113384;28;20571;-61
2022/11/16 03:48:41;;;;;;;29.85;13.73;;;;;;;2.51;82.59;96009.25;5113477;28;20075;-61
2022/11/16 03:51:10;;;;;;;26.17;14.48;;;;;;;2.46;83.43;95994.66;5113471;28;20047;-61
2022/11/16 03:53:37;;;;;;;29.48;14.65;;;;;;;2.49;83.74;95994.63;5113260;28;20079;-61
2022/11/16 03:56:04;;;;;;;30.80;13.82;;;;;;;2.53;84.51;96002.31;5113352;28;20122;-61
2022/11/16 03:58:31;;;;;;;25.52;13.57;;;;;;;2.61;84.53;96004.78;5113250;28;20044;-61
2022/11/16 04:00:58;;;;;;;28.58;13.60;;;;;;;2.63;84.66;96008.22;5113238;28;20123;-61
2022/11/16 04:03:27;;;;;;;23.00;12.63;;;;;;;2.67;84.58;96006.41;5113310;28;20087;-61
2022/11/16 04:25:30;;;;;;;24.45;12.82;;;;;;;3.09;84.54;95966.13;5034550;28;20050;-61
2022/11/16 04:28:12;;;;;;;24.58;13.57;;;;;;;3.08;84.31;95959.25;5100275;27;20130;-61
2022/11/16 04:38:55;;;;;;;25.80;13.65;;;;;;;3.00;85.38;95992.97;5116563;28;20058;-61
2022/11/16 04:44:07;;;;;;;35.30;15.48;;;;;;;2.97;84.70;95983.56;5116639;28;20078;-61
2022/11/16 04:49:18;;;;;;;32.83;14.48;;;;;;;3.00;85.00;95972.31;5116670;28;20496;-61
2022/11/16 04:51:47;;;;;;;29.10;15.43;;;;;;;2.90;85.20;95971.63;5116586;28;20116;-61
2022/11/16 04:54:14;;;;;;;34.75;16.65;;;;;;;2.94;85.79;95970.69;5116315;28;20096;-61
2022/11/16 04:56:41;;;;;;;34.15;16.38;;;;;;;3.00;86.37;95970.59;5116308;28;20104;-61
2022/11/16 04:59:08;;;;;;;30.70;16.38;;;;;;;3.08;86.45;95967.00;5116325;28;20143;-61
2022/11/16 05:04:20;;;;;;;33.60;15.43;;;;;;;3.10;86.59;95960.94;5116240;28;20151;-61
2022/11/16 05:06:49;;;;;;;31.90;16.52;;;;;;;3.18;87.14;95970.28;5116194;28;20496;-61
2022/11/16 05:09:16;;;;;;;29.23;16.08;;;;;;;3.24;87.12;95973.63;5116270;28;20071;-61
2022/11/16 05:11:43;;;;;;;31.83;15.63;;;;;;;3.31;86.58;95969.19;5116109;28;20097;-61
2022/11/16 05:14:10;;;;;;;30.48;15.77;;;;;;;3.39;86.68;95975.06;5115950;28;20047;-61
2022/11/16 05:16:38;;;;;;;34.40;15.15;;;;;;;3.47;86.96;95966.31;5115932;28;20131;-61
2022/11/16 05:21:52;;;;;;;30.48;15.07;;;;;;;3.46;87.98;95957.69;5115703;28;20054;-61
2022/11/16 05:27:08;;;;;;;36.90;16.48;;;;;;;3.53;90.00;95954.09;5108608;28;20048;-61
2022/11/16 05:29:36;;;;;;;32.50;17.20;;;;;;;3.61;90.65;95955.72;5115747;28;20048;-61
2022/11/16 05:32:04;;;;;;;31.55;17.08;;;;;;;3.62;90.61;95947.06;5115598;28;20039;-61
2022/11/16 05:34:32;;;;;;;30.45;15.88;;;;;;;3.74;90.10;95945.97;5115618;28;20078;-61
2022/11/16 05:37:00;;;;;;;30.00;16.42;;;;;;;3.77;89.76;95957.09;5115584;28;20079;-61
2022/11/16 05:39:28;;;;;;;31.90;16.25;;;;;;;3.85;89.23;95956.94;5115268;28;20131;-61
2022/11/16 05:41:56;;;;;;;33.53;15.43;;;;;;;3.89;88.98;95953.41;5115542;27;20061;-61
2022/11/16 05:44:23;;;;;;;33.58;15.35;;;;;;;3.98;89.72;95944.63;5115361;28;20135;-62
2022/11/16 05:46:51;;;;;;;27.63;14.68;;;;;;;4.06;89.02;95949.59;5115442;28;20093;-61
2022/11/16 05:49:19;;;;;;;29.05;15.07;;;;;;;4.12;88.05;95941.72;5115456;28;20047;-61
2022/11/16 05:51:47;;;;;;;31.45;15.80;;;;;;;4.16;87.92;95942.50;5115241;28;20047;-61
2022/11/16 05:54:18;;;;;;;29.83;15.00;;;;;;;4.06;86.55;95938.41;5115087;28;20047;-61
2022/11/16 05:56:45;;;;;;;34.53;15.95;;;;;;;4.06;86.65;95949.59;5115058;28;20479;-61
2022/11/16 05:59:14;;;;;;;32.47;16.40;;;;;;;4.14;85.91;95960.66;5115103;28;20081;-61
2022/11/16 06:01:41;;;;;;;37.35;16.75;;;;;;;4.27;85.74;95958.63;5115046;28;20044;-61
2022/11/16 06:04:09;;;;;;;37.58;17.95;;;;;;;4.50;85.47;95965.06;5114928;28;20401;-61
2022/11/16 06:06:36;;;;;;;38.58;17.83;;;;;;;4.87;84.95;95960.72;5114982;28;20052;-61
2022/11/16 06:09:05;;;;;;;39.75;19.02;;;;;;;5.59;83.69;95964.06;5114953;28;20098;-61
2022/11/16 06:11:35;;;;;;;35.25;17.63;;;;;;;6.50;81.12;95961.53;5114963;28;20040;-62
2022/11/16 06:14:02;;;;;;;29.80;15.95;;;;;;;7.24;76.85;95960.00;5114771;28;20059;-62
2022/11/16 06:16:30;;;;;;;28.92;14.93;;;;;;;8.03;74.76;95961.59;5114930;28;20044;-62
2022/11/16 06:18:57;;;;;;;25.05;14.25;;;;;;;8.95;72.09;95958.13;5114810;28;20044;-61
2022/11/16 06:21:25;;;;;;;24.52;13.15;;;;;;;10.08;68.22;95952.44;5114741;28;20055;-62
2022/11/16 06:23:52;;;;;;;20.67;13.45;;;;;;;10.98;64.17;95951.78;5114671;28;20557;-62
2022/11/16 06:26:19;;;;;;;17.75;11.88;;;;;;;11.78;61.02;95951.31;5114638;28;20052;-62
2022/11/16 06:28:48;;;;;;;20.95;11.55;;;;;;;11.91;60.01;95945.41;5114542;28;20078;-62
2022/11/16 06:31:16;;;;;;;21.23;12.35;;;;;;;11.58;60.65;95944.47;5114558;28;20265;-62
2022/11/16 06:33:43;;;;;;;22.20;12.48;;;;;;;11.61;61.22;95942.56;5113797;28;20051;-62
2022/11/16 06:36:10;;;;;;;23.20;13.02;;;;;;;11.61;61.53;95931.22;5114497;28;20046;-62
2022/11/16 06:38:37;;;;;;;19.00;11.90;;;;;;;11.93;60.95;95938.31;5114299;28;20127;-62
2022/11/16 06:41:05;;;;;;;20.23;12.52;;;;;;;11.69;60.26;95939.53;5114242;28;20044;-62
2022/11/16 06:43:32;;;;;;;24.08;13.73;;;;;;;11.17;60.92;95937.81;5114211;28;20055;-62
2022/11/16 06:46:01;;;;;;;21.88;12.73;;;;;;;10.83;61.05;95942.91;5114250;28;20043;-62
2022/11/16 06:48:28;;;;;;;19.90;13.00;;;;;;;10.42;61.97;95939.56;5114196;28;20055;-62
2022/11/16 06:50:55;;;;;;;22.38;13.10;;;;;;;10.09;62.79;95930.59;5114206;28;20104;-62
2022/11/16 06:53:23;;;;;;;22.83;13.95;;;;;;;9.86;63.52;95934.25;5113910;28;20104;-62
2022/11/16 06:55:50;;;;;;;20.60;12.88;;;;;;;9.68;64.14;95935.94;5113932;28;20507;-62
2022/11/16 06:58:17;;;;;;;21.02;13.35;;;;;;;9.61;64.80;95933.59;5113992;28;20043;-61
2022/11/16 07:00:45;;;;;;;26.27;13.48;;;;;;;9.57;65.17;95929.41;5114033;28;20047;-61
2022/11/16 07:03:13;;;;;;;23.88;13.80;;;;;;;9.57;65.76;95920.75;5114059;28;20048;-62
2022/11/16 07:05:41;;;;;;;24.73;14.05;;;;;;;9.79;67.14;95919.78;5113910;28;20489;-61
2022/11/16 07:08:09;;;;;;;24.50;14.20;;;;;;;11.03;64.51;95921.03;5113957;28;20087;-62
2022/11/16 07:10:37;;;;;;;22.13;13.65;;;;;;;12.81;60.08;95916.97;5113697;28;20047;-62
2022/11/16 07:13:06;;;;;;;24.73;12.82;;;;;;;14.76;54.21;95915.81;5113771;27;20458;-61
2022/11/16 07:15:33;;;;;;;22.52;13.80;;;;;;;16.58;50.37;95914.22;5113695;28;20130;-62
2022/11/16 07:18:05;;;;;;;21.73;12.63;;;;;;;17.05;47.82;95922.25;5113847;28;20466;-61
2022/11/16 07:20:34;;;;;;;19.15;12.35;;;;;;;16.71;47.73;95914.16;5113637;28;20078;-62
2022/11/16 07:23:02;;;;;;;22.33;13.02;;;;;;;16.33;48.82;95908.03;5113717;28;20366;-62
2022/11/16 07:25:29;;;;;;;19.02;12.00;;;;;;;16.00;49.09;95916.44;5113761;28;20120;-62
2022/11/16 07:27:58;;;;;;;22.20;12.73;;;;;;;15.83;48.99;95911.50;5113642;28;20044;-62
2022/11/16 07:30:25;;;;;;;21.30;13.90;;;;;;;16.18;48.02;95910.84;5113564;28;20039;-62
2022/11/16 07:32:57;;;;;;;22.52;14.80;;;;;;;17.36;46.80;95909.41;5113618;28;20090;-62
2022/11/16 07:35:25;;;;;;;21.10;13.55;;;;;;;18.58;43.75;95896.59;5113538;28;20046;-62
2022/11/16 07:37:53;;;;;;;19.88;13.48;;;;;;;19.53;40.53;95899.47;5113367;28;20083;-62
2022/11/16 07:40:21;;;;;;;20.95;13.68;;;;;;;20.50;39.36;95893.91;5113258;28;20547;-62
2022/11/16 07:42:48;;;;;;;23.45;12.73;;;;;;;21.18;37.75;95895.81;5113504;28;20044;-62
2022/11/16 07:45:15;;;;;;;19.25;13.27;;;;;;;22.09;36.29;95895.50;5114574;28;20138;-62
2022/11/16 07:47:42;;;;;;;19.60;13.32;;;;;;;22.56;34.30;95896.41;5117562;28;20051;-61
2022/11/16 07:50:10;;;;;;;18.70;12.82;;;;;;;22.91;34.31;95905.44;5117704;28;20089;-61
2022/11/16 07:52:38;;;;;;;25.48;14.68;;;;;;;22.68;34.17;95905.06;5117585;28;20511;-61
2022/11/16 07:55:07;;;;;;;20.33;13.20;;;;;;;22.58;34.17;95905.94;5117500;28;20086;-61
2022/11/16 07:57:34;;;;;;;19.17;13.20;;;;;;;22.52;35.03;95900.34;5117531;28;20071;-61
2022/11/16 08:00:02;;;;;;;17.23;11.85;;;;;;;22.74;34.74;95898.28;5117594;28;20087;-61
2022/11/16 08:02:30;;;;;;;20.98;12.40;;;;;;;22.91;33.96;95891.31;5117492;28;20050;-60
2022/11/16 08:04:57;;;;;;;18.13;12.90;;;;;;;22.11;34.58;95884.69;5117234;28;20048;-61
2022/11/16 08:07:24;;;;;;;19.60;11.57;;;;;;;21.69;35.67;95884.97;5117386;28;20122;-60
2022/11/16 08:09:52;;;;;;;16.45;11.75;;;;;;;21.11;36.39;95888.53;5117304;28;20075;-61
2022/11/16 08:12:20;;;;;;;16.95;10.77;;;;;;;21.07;36.94;95882.69;5117223;28;20044;-62
2022/11/16 08:14:47;;;;;;;16.25;11.02;;;;;;;20.90;37.25;95886.88;5117265;28;20531;-60
2022/11/16 08:17:14;;;;;;;15.50;11.40;;;;;;;20.49;37.77;95878.94;5117124;28;20138;-62
2022/11/16 08:19:42;;;;;;;19.02;12.40;;;;;;;20.26;37.93;95881.81;5117066;28;20058;-62
2022/11/16 08:22:09;;;;;;;14.68;10.40;;;;;;;19.50;39.16;95879.34;5117074;28;20050;-62
2022/11/16 08:24:36;;;;;;;20.15;12.32;;;;;;;18.73;41.35;95879.47;5116983;28;20086;-62
2022/11/16 08:27:04;;;;;;;21.00;13.38;;;;;;;18.29;42.71;95874.97;5116965;28;20113;-62
2022/11/16 08:29:32;;;;;;;16.48;11.55;;;;;;;17.91;43.67;95873.56;5116830;28;20050;-62
2022/11/16 08:32:00;;;;;;;16.30;11.82;;;;;;;17.67;43.63;95880.59;5116868;28;20059;-62
2022/11/16 08:34:27;;;;;;;20.92;12.82;;;;;;;17.15;45.15;95874.84;5116935;28;20469;-62
2022/11/16 08:36:54;;;;;;;20.50;13.60;;;;;;;16.87;46.09;95866.34;5116784;28;20066;-62
2022/11/16 08:39:21;;;;;;;19.27;11.75;;;;;;;16.43;46.54;95864.19;5116488;28;20044;-62
2022/11/16 08:41:48;;;;;;;16.35;12.13;;;;;;;16.32;47.35;95867.63;5116682;28;20075;-62
2022/11/16 08:44:15;;;;;;;17.35;12.68;;;;;;;16.31;46.94;95867.75;5116564;28;20071;-62
2022/11/16 08:46:43;;;;;;;20.13;13.63;;;;;;;15.92;48.36;95863.34;5116475;28;20134;-62
2022/11/16 08:49:11;;;;;;;20.80;14.18;;;;;;;15.68;49.42;95856.22;5116534;28;20128;-62
2022/11/16 08:51:38;;;;;;;25.80;14.10;;;;;;;15.36;50.25;95862.78;5116435;28;20044;-62
2022/11/16 08:54:05;;;;;;;23.90;15.55;;;;;;;15.30;50.14;95855.28;5116513;28;20550;-62
2022/11/16 08:56:33;;;;;;;20.85;14.52;;;;;;;15.34;50.06;95843.59;5115891;28;20435;-62
2022/11/16 08:59:00;;;;;;;23.23;13.43;;;;;;;15.43;50.12;95843.88;5116177;28;20044;-62
2022/11/16 09:01:30;;;;;;;18.83;12.60;;;;;;;15.58;50.12;95834.09;5116294;28;20101;-62
2022/11/16 09:03:58;;;;;;;19.40;12.75;;;;;;;15.71;49.67;95828.81;5116196;28;20075;-62
2022/11/16 09:06:27;;;;;;;23.20;14.02;;;;;;;15.60;50.08;95826.94;5116157;28;20079;-62
2022/11/16 09:08:54;;;;;;;19.58;12.88;;;;;;;15.41;51.20;95834.31;5116135;28;20051;-62
2022/11/16 09:11:23;;;;;;;21.13;12.82;;;;;;;15.37;51.25;95842.53;5116047;28;20417;-62
2022/11/16 09:13:52;;;;;;;18.20;12.65;;;;;;;15.32;50.96;95827.03;5115967;28;20048;-62
2022/11/16 09:16:20;;;;;;;21.48;13.75;;;;;;;15.53;51.07;95824.72;5115901;28;20071;-62
2022/11/16 09:18:48;;;;;;;20.48;13.02;;;;;;;15.55;51.50;95829.88;5115896;28;20528;-62
2022/11/16 09:21:19;;;;;;;19.17;12.73;;;;;;;15.35;50.88;95824.19;5115761;28;20405;-62
2022/11/16 09:23:47;;;;;;;18.80;11.60;;;;;;;15.44;50.62;95819.25;5115697;28;20052;-62
2022/11/16 09:26:15;;;;;;;19.45;12.60;;;;;;;15.42;51.10;95811.44;5115674;28;20047;-62
2022/11/16 09:28:42;;;;;;;19.85;12.07;;;;;;;15.15;51.57;95813.22;5115836;28;20090;-62
2022/11/16 09:31:10;;;;;;;17.50;12.00;;;;;;;15.05;50.12;95785.81;5115664;28;20077;-62
2022/11/16 09:33:37;;;;;;;16.58;11.73;;;;;;;15.15;51.38;95800.03;5115537;28;20075;-62
2022/11/16 09:36:06;;;;;;;19.73;12.80;;;;;;;15.18;52.17;95793.75;5115665;28;20550;-62
2022/11/16 09:38:35;;;;;;;17.98;11.63;;;;;;;15.27;51.85;95784.38;5115418;28;20082;-62
2022/11/16 09:41:10;;;;;;;18.75;12.10;;;;;;;15.20;50.90;95783.09;5115570;28;20052;-62
2022/11/16 09:43:44;;;;;;;18.63;12.35;;;;;;;15.15;52.39;95781.59;5115450;28;20047;-62
2022/11/16 09:46:21;;;;;;;19.15;13.05;;;;;;;15.19;52.59;95778.75;5115327;28;20075;-62
2022/11/16 09:48:49;;;;;;;23.13;13.18;;;;;;;15.20;53.13;95775.19;5115282;28;20093;-62
2022/11/16 09:51:21;;;;;;;18.30;11.93;;;;;;;15.21;52.78;95764.56;5115297;28;20447;-62
2022/11/16 09:53:57;;;;;;;21.48;14.27;;;;;;;15.25;52.73;95758.13;5115209;28;20063;-61
2022/11/16 09:56:25;;;;;;;19.20;14.07;;;;;;;15.01;52.93;95763.28;5115309;28;20047;-61
2022/11/16 09:59:01;;;;;;;20.00;12.70;;;;;;;14.95;54.08;95761.91;5115171;28;20063;-62
2022/11/16 10:01:32;;;;;;;21.63;14.07;;;;;;;14.98;53.89;95751.19;5115131;28;20054;-62
2022/11/16 10:04:07;;;;;;;19.27;13.20;;;;;;;15.10;53.84;95744.22;5115149;28;20504;-62
2022/11/16 10:06:46;;;;;;;20.48;13.57;;;;;;;15.10;53.16;95736.31;5114825;28;20055;-61
2022/11/16 10:09:14;;;;;;;23.15;14.48;;;;;;;15.18;53.01;95727.03;5114015;28;20451;-62
2022/11/16 10:12:06;;;;;;;23.70;13.55;;;;;;;15.14;53.66;95719.34;5114988;28;20047;-61
2022/11/16 10:15:11;;;;;;;20.30;13.30;;;;;;;15.13;53.39;95715.03;5114900;28;20048;-62
2022/11/16 10:17:52;;;;;;;18.70;11.55;;;;;;;15.23;53.64;95712.59;5114782;28;20440;-62
2022/11/16 10:20:49;;;;;;;19.63;12.38;;;;;;;15.18;53.57;95700.69;5114656;28;20083;-62
2022/11/16 10:23:29;;;;;;;19.85;13.10;;;;;;;15.02;52.20;95710.50;5114897;28;20050;-61
2022/11/16 10:26:05;;;;;;;22.23;14.35;;;;;;;14.82;54.41;95708.41;5114536;28;20104;-62
2022/11/16 10:29:05;;;;;;;23.20;14.82;;;;;;;14.81;54.30;95696.22;5114852;28;20044;-62
2022/11/16 10:31:51;;;;;;;22.83;13.47;;;;;;;14.76;54.84;95707.00;5114487;28;20047;-62
2022/11/16 10:34:22;;;;;;;20.80;13.07;;;;;;;14.78;54.31;95702.53;5114565;28;20287;-62
2022/11/16 10:36:49;;;;;;;22.77;13.48;;;;;;;14.79;55.15;95696.31;5114605;28;20551;-62
2022/11/16 10:39:19;;;;;;;22.33;13.57;;;;;;;14.58;54.90;95695.94;5114294;28;20047;-62
2022/11/16 10:41:50;;;;;;;22.48;14.43;;;;;;;14.59;55.75;95693.22;5114387;28;20075;-62
2022/11/16 10:44:26;;;;;;;23.50;14.23;;;;;;;14.50;55.08;95686.78;5114336;28;20051;-61
2022/11/16 10:47:00;;;;;;;26.05;14.80;;;;;;;14.46;54.88;95682.69;5114236;28;20070;-62
2022/11/16 10:49:38;;;;;;;28.70;15.98;;;;;;;14.42;56.52;95690.88;5114197;28;20040;-62
2022/11/16 10:52:06;;;;;;;26.63;15.50;;;;;;;14.42;56.38;95690.88;5114238;28;20477;-62
2022/11/16 10:54:33;;;;;;;30.95;17.23;;;;;;;14.33;56.63;95692.34;5114055;28;20077;-62
2022/11/16 10:57:04;;;;;;;26.65;16.88;;;;;;;14.37;56.80;95686.78;5114064;28;20051;-62
2022/11/16 10:59:39;;;;;;;23.38;15.40;;;;;;;14.26;56.16;95678.75;5114087;28;20485;-62
2022/11/16 11:02:27;;;;;;;26.05;15.18;;;;;;;14.33;57.15;95668.66;5114011;28;20050;-62
2022/11/16 11:05:07;;;;;;;26.60;14.43;;;;;;;14.25;56.92;95659.50;5113911;28;20120;-62
2022/11/16 11:07:38;;;;;;;25.02;14.82;;;;;;;14.26;56.91;95661.19;5114003;28;20074;-62
2022/11/16 11:10:06;;;;;;;26.67;15.07;;;;;;;14.43;57.14;95658.34;5113849;28;20097;-61
2022/11/16 11:12:36;;;;;;;26.20;14.60;;;;;;;14.47;56.02;95659.81;5113798;28;20134;-61
2022/11/16 11:15:21;;;;;;;25.75;15.48;;;;;;;14.38;56.36;95663.91;5113708;28;20096;-62
2022/11/16 11:17:50;;;;;;;23.17;15.93;;;;;;;14.27;56.96;95659.41;5113680;28;20563;-62
2022/11/16 11:20:23;;;;;;;24.40;15.35;;;;;;;14.28;57.37;95655.81;5113426;28;20100;-62
2022/11/16 11:22:55;;;;;;;26.23;15.70;;;;;;;14.28;57.53;95656.69;5113664;28;20047;-62
2022/11/16 11:25:24;;;;;;;26.77;15.73;;;;;;;14.28;56.89;95653.19;5113552;28;20517;-62
2022/11/16 11:28:05;;;;;;;31.90;16.87;;;;;;;14.29;57.45;95649.59;5113658;28;20044;-61
2022/11/16 11:30:33;;;;;;;23.55;15.30;;;;;;;14.35;57.73;95646.56;5113573;28;20131;-62
2022/11/16 11:33:00;;;;;;;23.75;14.18;;;;;;;14.28;57.28;95645.31;5113673;28;20044;-62
2022/11/16 11:35:30;;;;;;;23.67;15.20;;;;;;;14.37;57.57;95649.94;5113531;28;20044;-62
2022/11/16 11:38:00;;;;;;;24.92;15.82;;;;;;;14.40;56.77;95647.13;5113559;28;20048;-61
2022/11/16 11:40:28;;;;;;;26.52;16.10;;;;;;;14.39;57.19;95648.03;5113339;28;20043;-62
2022/11/16 11:43:00;;;;;;;26.43;15.73;;;;;;;14.34;57.43;95638.78;5113595;28;20134;-62
2022/11/16 11:45:37;;;;;;;23.80;15.70;;;;;;;14.30;57.72;95640.75;5113324;28;20109;-62
2022/11/16 11:48:14;;;;;;;28.45;16.65;;;;;;;14.23;58.08;95634.22;5113494;28;20589;-62
2022/11/16 11:50:48;;;;;;;23.50;15.55;;;;;;;14.14;58.44;95631.28;5113469;28;20131;-62
2022/11/16 11:53:46;;;;;;;26.35;14.98;;;;;;;14.09;58.23;95632.53;5113490;28;20048;-62
2022/11/16 11:56:15;;;;;;;24.05;15.23;;;;;;;14.04;58.50;95635.47;5113365;28;20047;-61
2022/11/16 11:58:44;;;;;;;25.92;15.88;;;;;;;13.98;58.16;95634.09;5113525;28;20131;-61
2022/11/16 12:01:52;;;;;;;28.15;16.48;;;;;;;14.06;57.61;95633.56;5113399;28;20077;-62
2022/11/16 12:04:52;;;;;;;26.20;15.43;;;;;;;13.98;57.84;95631.47;5113255;28;20044;-62
2022/11/16 12:07:33;;;;;;;24.63;16.40;;;;;;;14.03;58.03;95621.47;5113354;28;20047;-62
2022/11/16 12:10:04;;;;;;;;;;;;;;;13.96;58.66;95622.84;5113713;28;20524;-61
2022/11/16 12:12:41;;;;;;;24.30;15.30;;;;;;;13.93;59.02;95615.16;5113230;28;19926;-62
2022/11/16 12:15:52;;;;;;;26.63;15.90;;;;;;;13.90;58.69;95610.94;5113148;28;20055;-62
2022/11/16 12:18:40;;;;;;;25.65;14.80;;;;;;;13.86;58.59;95613.88;5113242;28;20418;-62
2022/11/16 12:21:13;;;;;;;21.00;14.05;;;;;;;13.85;58.03;95606.94;5113218;28;20131;-62
2022/11/16 12:23:54;;;;;;;24.25;15.52;;;;;;;13.77;59.00;95608.28;5113194;28;20083;-61
2022/11/16 12:26:30;;;;;;;23.27;13.95;;;;;;;13.75;59.00;95606.69;5112962;28;20509;-62